Time;durP1;ratioP1;P1;durP2;ratioP2;P2;SDS_P1;SDS_P2;PMS_P1;PMS_P2;Temp;Humidity;BMP_temperature;BMP_pressure;BME280_temperature;BME280_humidity;BME280_pressure;Samples;Min_cycle;Max_cycle;Signal;HPM_P1;HPM_P2
2024/04/18 00:01:58;;;;;;;5.63;5.13;;;;;;;5.97;82.30;98310.75;5376546;26;20001;-87
2024/04/18 00:04:24;;;;;;;6.95;5.35;;;;;;;6.81;82.89;98368.44;5350982;26;20014;-86
2024/04/18 00:06:49;;;;;;;6.68;5.18;;;;;;;6.98;80.98;98360.53;5351653;26;20000;-86
2024/04/18 00:09:14;;;;;;;5.22;4.72;;;;;;;6.38;80.47;98238.19;5367403;26;20072;-86
2024/04/18 00:11:40;;;;;;;5.90;4.65;;;;;;;6.50;80.40;98258.34;5344132;26;20000;-86
2024/04/18 00:14:05;;;;;;;6.85;5.07;;;;;;;7.29;80.30;98374.13;5342402;26;20000;-86
2024/04/18 00:16:30;;;;;;;6.40;5.00;;;;;;;7.20;80.67;98375.53;5375995;26;20048;-86
2024/04/18 00:18:56;;;;;;;5.43;4.93;;;;;;;7.22;80.37;98373.47;5321902;26;19996;-86
2024/04/18 00:21:21;;;;;;;5.97;4.50;;;;;;;7.03;80.28;98364.09;5374109;26;20070;-87
2024/04/18 00:23:46;;;;;;;5.32;4.68;;;;;;;7.21;80.60;98377.13;5348727;26;20008;-87
2024/04/18 00:26:12;;;;;;;8.40;5.38;;;;;;;7.03;80.72;98357.97;5368520;26;20005;-86
2024/04/18 00:28:37;;;;;;;5.57;5.05;;;;;;;7.20;80.49;98380.03;5348637;26;20050;-86
2024/04/18 00:31:02;;;;;;;5.13;4.68;;;;;;;6.88;80.64;98336.47;5375929;26;20012;-86
2024/04/18 00:33:28;;;;;;;5.25;4.75;;;;;;;7.15;80.43;98371.97;5318522;26;20076;-85
2024/04/18 00:35:53;;;;;;;6.05;5.25;;;;;;;7.16;80.21;98373.59;5348460;26;20000;-86
2024/04/18 00:38:18;;;;;;;5.88;4.30;;;;;;;7.13;80.33;98374.06;5376370;26;20014;-86
2024/04/18 00:40:44;;;;;;;6.78;5.10;;;;;;;7.09;80.02;98376.41;5378435;26;20014;-86
2024/04/18 00:43:10;;;;;;;6.30;5.50;;;;;;;6.77;80.74;98323.00;5375115;26;21813;-86
2024/04/18 00:45:36;;;;;;;5.78;5.20;;;;;;;7.16;79.94;98374.41;5376238;26;20075;-86
2024/04/18 00:48:02;;;;;;;5.07;4.57;;;;;;;7.00;80.41;98369.88;5345821;26;20001;-86
2024/04/18 00:50:28;;;;;;;4.97;4.47;;;;;;;7.09;80.16;98368.44;5372651;26;20028;-86
2024/04/18 00:52:53;;;;;;;7.45;5.47;;;;;;;7.06;80.44;98378.72;5373671;26;20082;-86
2024/04/18 00:55:19;;;;;;;5.90;5.30;;;;;;;6.74;80.62;98328.78;5378249;26;20070;-86
2024/04/18 00:57:44;;;;;;;5.50;5.00;;;;;;;6.95;80.14;98361.78;5379457;26;20010;-85
2024/04/18 01:00:11;;;;;;;8.05;6.18;;;;;;;7.06;80.68;98378.72;5378850;26;20012;-85
2024/04/18 01:02:36;;;;;;;8.55;6.57;;;;;;;6.89;80.88;98361.94;5343172;26;20472;-85
2024/04/18 01:05:02;;;;;;;6.97;5.53;;;;;;;6.53;80.79;98307.44;5380751;26;20004;-86
2024/04/18 01:07:28;;;;;;;8.82;6.43;;;;;;;6.66;81.58;98368.91;5347805;26;20004;-86
2024/04/18 01:09:53;;;;;;;9.48;6.80;;;;;;;6.85;81.12;98380.19;5322149;26;20015;-86
2024/04/18 01:12:19;;;;;;;9.55;7.45;;;;;;;6.99;80.73;98386.03;5367275;26;20083;-86
2024/04/18 01:14:44;;;;;;;9.07;7.45;;;;;;;6.40;80.49;98289.16;5362046;26;20015;-86
2024/04/18 01:17:10;;;;;;;8.60;7.68;;;;;;;6.33;80.39;98283.16;5345127;26;20096;-86
2024/04/18 01:19:36;;;;;;;10.00;7.68;;;;;;;6.76;80.80;98370.97;5377673;26;20029;-85
2024/04/18 01:22:02;;;;;;;9.25;7.38;;;;;;;5.85;81.98;98318.69;5378703;26;20000;-86
2024/04/18 01:24:27;;;;;;;11.32;7.13;;;;;;;6.09;82.22;98281.59;5368645;26;20046;-86
2024/04/18 01:26:53;;;;;;;11.75;7.45;;;;;;;6.93;80.77;98384.28;5342267;26;19996;-87
2024/04/18 01:29:18;;;;;;;10.20;7.05;;;;;;;6.75;81.22;98378.13;5345151;26;20015;-87
2024/04/18 01:31:44;;;;;;;11.70;8.32;;;;;;;6.88;80.47;98386.88;5342049;26;20400;-86
2024/04/18 01:34:09;;;;;;;9.48;7.57;;;;;;;6.78;81.37;98393.59;5344227;26;20011;-86
2024/04/18 01:36:34;;;;;;;9.65;7.63;;;;;;;6.93;80.82;98395.72;5378540;26;20008;-87
2024/04/18 01:39:00;;;;;;;8.07;6.75;;;;;;;6.42;81.17;98372.66;5373224;26;20078;-86
2024/04/18 01:41:25;;;;;;;10.27;8.25;;;;;;;6.63;81.64;98398.56;5375993;26;19997;-86
2024/04/18 01:43:50;;;;;;;9.82;8.23;;;;;;;6.44;80.85;98333.50;5375804;26;20032;-86
2024/04/18 01:46:16;;;;;;;11.07;8.23;;;;;;;6.32;81.96;98404.25;5370849;26;20001;-85
2024/04/18 01:48:45;;;;;;;9.45;7.57;;;;;;;6.35;83.68;98406.47;5383457;26;20529;-85
2024/04/18 01:51:10;;;;;;;11.10;8.05;;;;;;;6.06;82.66;98327.91;5376616;26;19996;-86
2024/04/18 01:53:36;;;;;;;10.82;8.85;;;;;;;6.42;83.60;98411.63;5343298;26;20019;-86
2024/04/18 01:56:02;;;;;;;10.23;8.77;;;;;;;6.28;82.45;98370.50;5413749;26;20050;-86
2024/04/18 01:58:27;;;;;;;11.45;8.75;;;;;;;6.26;83.07;98364.63;5379640;26;20011;-86
2024/04/18 02:00:52;;;;;;;10.90;8.45;;;;;;;6.61;81.64;98383.94;5374447;26;20084;-86
2024/04/18 02:03:18;;;;;;;10.55;8.63;;;;;;;6.78;81.36;98408.69;5380607;26;20007;-86
2024/04/18 02:05:43;;;;;;;13.63;8.73;;;;;;;6.44;82.49;98394.47;5327864;26;20004;-86
2024/04/18 02:08:08;;;;;;;12.63;9.38;;;;;;;6.18;81.87;98386.97;5382397;26;19996;-86
2024/04/18 02:10:34;;;;;;;11.93;8.45;;;;;;;6.51;82.48;98418.22;5353097;26;19997;-85
2024/04/18 02:12:59;;;;;;;13.57;9.23;;;;;;;6.81;81.90;98424.91;5372045;26;20005;-86
2024/04/18 02:15:25;;;;;;;13.35;8.85;;;;;;;6.79;81.35;98415.63;5374092;26;20004;-86
2024/04/18 02:17:51;;;;;;;12.63;9.77;;;;;;;6.25;82.09;98373.59;5378514;26;19996;-86
2024/04/18 02:20:18;;;;;;;29.70;9.90;;;;;;;6.52;81.68;98403.91;5347540;26;20390;-86
2024/04/18 02:22:43;;;;;;;12.80;9.85;;;;;;;6.31;81.76;98384.09;5376394;26;20020;-86
2024/04/18 02:25:10;;;;;;;15.55;10.00;;;;;;;5.92;83.66;98429.81;5379638;26;20019;-86
2024/04/18 02:27:42;;;;;;;11.50;9.05;;;;;;;6.49;82.39;98413.13;5377296;26;20004;-86
2024/04/18 02:30:09;;;;;;;12.80;9.70;;;;;;;6.31;83.50;98431.00;5373148;26;20078;-86
2024/04/18 02:32:35;;;;;;;14.30;11.55;;;;;;;5.68;84.03;98397.16;5371164;26;20083;-86
2024/04/18 02:35:01;;;;;;;15.07;10.68;;;;;;;5.78;84.93;98429.22;5384096;26;20050;-86
2024/04/18 02:37:27;;;;;;;16.73;11.60;;;;;;;5.18;85.65;98333.22;5386746;26;20011;-85
2024/04/18 02:39:52;;;;;;;15.52;11.52;;;;;;;6.02;85.13;98440.66;5344072;26;20065;-86
2024/04/18 02:42:18;;;;;;;18.65;13.23;;;;;;;5.97;83.54;98384.91;5383461;26;20478;-85
2024/04/18 02:44:43;;;;;;;20.90;14.75;;;;;;;5.64;84.88;98446.31;5382270;26;20447;-86
2024/04/18 02:47:09;;;;;;;23.73;14.73;;;;;;;4.86;85.91;98397.97;5383827;26;20011;-85
2024/04/18 02:49:35;;;;;;;25.20;15.68;;;;;;;4.60;87.72;98415.97;5382035;26;19996;-85
2024/04/18 02:52:00;;;;;;;25.85;15.77;;;;;;;4.89;87.72;98399.34;5382298;26;20016;-86
2024/04/18 02:54:25;;;;;;;24.85;15.63;;;;;;;5.24;87.22;98453.22;5375893;26;20007;-85
2024/04/18 02:56:51;;;;;;;28.10;17.40;;;;;;;5.15;87.56;98407.75;5372711;26;20015;-85
2024/04/18 02:59:16;;;;;;;29.33;17.02;;;;;;;5.26;86.22;98449.28;5353850;26;20046;-86
2024/04/18 03:01:42;;;;;;;27.65;18.02;;;;;;;4.88;87.42;98417.06;5386794;26;20007;-85
2024/04/18 03:04:07;;;;;;;26.77;16.92;;;;;;;5.11;87.89;98440.16;5384086;26;19996;-85
2024/04/18 03:06:32;;;;;;;33.63;20.10;;;;;;;4.71;87.08;98410.75;5375612;26;20004;-86
2024/04/18 03:08:58;;;;;;;27.15;17.33;;;;;;;5.39;86.17;98452.81;5324123;26;20069;-85
2024/04/18 03:11:23;;;;;;;31.48;18.38;;;;;;;5.32;86.96;98459.00;5351938;26;20005;-85
2024/04/18 03:13:48;;;;;;;27.58;18.10;;;;;;;4.70;86.46;98389.81;5340389;26;20056;-85
2024/04/18 03:16:14;;;;;;;30.35;18.45;;;;;;;4.93;86.77;98425.13;5349586;26;20340;-86
2024/04/18 03:18:41;;;;;;;34.33;18.33;;;;;;;5.15;86.68;98446.63;5376322;26;20436;-85
2024/04/18 03:21:07;;;;;;;33.50;19.48;;;;;;;5.60;86.85;98454.94;5379012;26;20071;-86
2024/04/18 03:23:32;;;;;;;30.45;18.17;;;;;;;5.54;85.87;98454.00;5325825;26;20009;-86
2024/04/18 03:25:58;;;;;;;27.17;18.17;;;;;;;5.79;84.17;98448.53;5350115;26;20000;-86
2024/04/18 03:28:23;;;;;;;28.25;18.20;;;;;;;5.72;83.36;98384.31;5381209;26;20451;-85
2024/04/18 03:30:49;;;;;;;26.52;16.40;;;;;;;5.61;83.25;98408.91;5374677;26;20051;-86
2024/04/18 03:33:14;;;;;;;26.00;15.77;;;;;;;5.95;84.21;98469.91;5381945;26;20004;-85
2024/04/18 03:35:40;;;;;;;23.15;17.05;;;;;;;4.64;85.68;98380.13;5384098;26;20004;-86
2024/04/18 03:38:05;;;;;;;23.88;15.88;;;;;;;5.36;86.44;98427.59;5376611;26;19997;-86
2024/04/18 03:40:31;;;;;;;31.15;18.35;;;;;;;5.55;85.37;98425.72;5381422;26;20724;-85
2024/04/18 03:42:57;;;;;;;27.60;17.33;;;;;;;6.13;83.44;98447.00;5363741;26;20005;-85
2024/04/18 03:45:23;;;;;;;31.90;18.42;;;;;;;5.74;83.99;98464.31;5373599;26;20015;-86
2024/04/18 03:47:51;;;;;;;27.83;17.17;;;;;;;5.95;83.49;98438.13;5377609;26;20000;-86
2024/04/18 03:50:16;;;;;;;27.23;16.73;;;;;;;6.12;83.26;98461.28;5344997;26;19997;-86
2024/04/18 03:52:42;;;;;;;25.88;18.00;;;;;;;5.87;83.69;98482.69;5380577;26;20078;-86
2024/04/18 03:55:07;;;;;;;30.77;20.25;;;;;;;5.36;84.47;98477.88;5379410;26;20001;-85
2024/04/18 03:57:33;;;;;;;31.05;19.67;;;;;;;5.06;85.56;98405.63;5318887;26;20882;-85
2024/04/18 03:59:58;;;;;;;28.38;18.73;;;;;;;5.45;85.58;98476.53;5370078;26;20004;-86
2024/04/18 04:02:23;;;;;;;29.60;18.60;;;;;;;5.26;86.36;98461.75;5375471;26;20000;-86
2024/04/18 04:04:50;;;;;;;32.60;19.10;;;;;;;4.90;87.50;98499.59;5379381;26;21911;-86
2024/04/18 04:07:16;;;;;;;36.45;23.38;;;;;;;4.39;89.55;98475.34;5370772;26;20048;-85
2024/04/18 04:09:41;;;;;;;33.58;19.38;;;;;;;4.80;88.54;98427.13;5381369;26;20420;-86
2024/04/18 04:12:07;;;;;;;38.05;23.38;;;;;;;5.02;87.99;98449.44;5316002;26;20059;-85
2024/04/18 04:14:32;;;;;;;35.60;21.30;;;;;;;5.57;87.12;98517.06;5320997;26;20046;-86
2024/04/18 04:16:57;;;;;;;33.78;21.05;;;;;;;5.30;86.74;98484.06;5372037;26;20010;-85
2024/04/18 04:19:23;;;;;;;35.00;20.45;;;;;;;5.58;85.59;98502.81;5368702;26;19997;-85
2024/04/18 04:21:49;;;;;;;31.15;20.27;;;;;;;5.50;84.44;98471.38;5365595;26;21384;-84
2024/04/18 04:24:14;;;;;;;37.42;20.00;;;;;;;6.17;83.21;98511.75;5370449;26;19992;-86
2024/04/18 04:26:39;;;;;;;31.90;20.05;;;;;;;6.27;82.16;98517.31;5340182;26;20326;-86
2024/04/18 04:29:05;;;;;;;28.77;19.33;;;;;;;5.93;82.65;98495.81;5346436;26;20042;-86
2024/04/18 04:31:30;;;;;;;26.42;17.60;;;;;;;6.18;81.59;98523.97;5369318;26;20064;-85
2024/04/18 04:33:55;;;;;;;28.10;17.85;;;;;;;5.87;82.09;98519.75;5344622;26;20000;-85
2024/04/18 04:36:22;;;;;;;25.30;16.27;;;;;;;6.25;81.60;98540.56;5345059;26;20019;-86
2024/04/18 04:38:47;;;;;;;31.27;20.00;;;;;;;6.13;81.32;98524.66;5375592;26;20449;-86
2024/04/18 04:41:13;;;;;;;24.77;16.45;;;;;;;5.49;81.75;98540.41;5345338;26;20005;-86
2024/04/18 04:43:41;;;;;;;27.80;17.05;;;;;;;5.32;83.52;98556.09;5346484;26;20004;-85
2024/04/18 04:46:07;;;;;;;30.88;18.48;;;;;;;5.63;82.95;98558.56;5371104;26;20011;-86
2024/04/18 04:48:32;;;;;;;30.00;18.80;;;;;;;5.06;84.12;98556.41;5366583;26;19996;-87
2024/04/18 04:51:00;;;;;;;29.35;18.80;;;;;;;5.44;83.25;98564.09;5364843;26;20012;-86
2024/04/18 04:53:26;;;;;;;28.00;17.98;;;;;;;5.69;83.12;98527.72;5385340;26;20050;-86
2024/04/18 04:55:52;;;;;;;27.73;17.77;;;;;;;5.49;82.83;98535.94;5372846;26;20004;-85
2024/04/18 04:58:18;;;;;;;26.70;18.42;;;;;;;5.44;84.17;98562.25;5370774;26;20391;-85
2024/04/18 05:00:43;;;;;;;25.50;16.95;;;;;;;5.73;82.77;98563.31;5371884;26;20000;-85
2024/04/18 05:03:08;;;;;;;31.70;19.30;;;;;;;5.59;84.22;98560.00;5372339;26;19997;-86
2024/04/18 05:05:34;;;;;;;25.23;16.52;;;;;;;5.49;83.32;98519.22;5380758;26;20081;-86
2024/04/18 05:07:59;;;;;;;28.38;17.08;;;;;;;5.48;84.16;98603.13;5346422;26;20012;-85
2024/04/18 05:10:25;;;;;;;26.63;17.00;;;;;;;5.37;84.01;98542.19;5352788;26;20574;-86
2024/04/18 05:12:51;;;;;;;26.50;16.63;;;;;;;4.97;86.35;98560.34;5381629;26;20004;-88
2024/04/18 05:15:16;;;;;;;27.10;16.50;;;;;;;5.44;83.96;98554.31;5380174;26;20003;-86
2024/04/18 05:17:42;;;;;;;25.95;16.65;;;;;;;5.30;85.49;98616.38;5372488;26;20046;-86
2024/04/18 05:20:08;;;;;;;24.92;17.77;;;;;;;4.09;88.61;98495.50;5345993;26;19996;-86
2024/04/18 05:22:33;;;;;;;29.73;18.75;;;;;;;4.65;88.46;98591.38;5382106;26;20397;-86
2024/04/18 05:24:59;;;;;;;26.33;17.95;;;;;;;5.36;87.01;98596.94;5356353;26;19992;-85
2024/04/18 05:27:24;;;;;;;27.85;17.35;;;;;;;5.42;86.32;98627.03;5386991;26;20007;-86
2024/04/18 05:32:34;;;;;;;25.88;17.13;;;;;;;5.43;85.98;98621.50;5378680;26;20212;-86
2024/04/18 05:34:59;;;;;;;25.73;17.08;;;;;;;5.60;86.05;98634.94;5339222;26;20004;-86
2024/04/18 05:37:25;;;;;;;26.27;17.50;;;;;;;4.39;86.62;98536.13;5382342;26;19997;-86
2024/04/18 05:39:51;;;;;;;24.63;15.45;;;;;;;5.58;86.39;98608.72;5324023;26;20007;-86
2024/04/18 05:42:16;;;;;;;26.83;16.92;;;;;;;5.32;86.50;98622.25;5320712;26;20074;-86
2024/04/18 05:44:42;;;;;;;28.90;18.77;;;;;;;4.16;90.81;98597.44;5382898;26;20414;-86
2024/04/18 05:47:07;;;;;;;27.30;17.67;;;;;;;5.30;88.09;98616.38;5385316;26;20004;-85
2024/04/18 05:49:33;;;;;;;26.38;16.63;;;;;;;4.94;88.03;98613.66;5353881;26;20050;-85
2024/04/18 05:51:58;;;;;;;24.15;15.10;;;;;;;5.81;87.07;98661.00;5380021;26;20000;-87
2024/04/18 05:54:24;;;;;;;25.30;16.85;;;;;;;5.23;87.01;98658.75;5381333;26;20027;-87
2024/04/18 05:56:49;;;;;;;25.58;16.13;;;;;;;5.72;85.76;98636.63;5381474;26;20015;-86
2024/04/18 05:59:14;;;;;;;26.25;17.20;;;;;;;5.28;87.78;98671.34;5381195;26;20005;-88
2024/04/18 06:01:40;;;;;;;25.05;16.52;;;;;;;5.42;88.99;98650.84;5385097;26;20464;-87
2024/04/18 06:04:06;;;;;;;26.30;17.52;;;;;;;5.18;89.25;98666.53;5384867;26;20035;-87
2024/04/18 06:06:33;;;;;;;24.63;17.00;;;;;;;6.09;86.12;98663.09;5385345;26;20329;-87
2024/04/18 06:08:59;;;;;;;26.13;16.77;;;;;;;5.46;87.22;98659.97;5380384;26;19996;-88
2024/04/18 06:11:33;;;;;;;26.75;16.45;;;;;;;6.02;86.53;98685.19;5389794;26;20002;-87
2024/04/18 06:13:58;;;;;;;24.73;15.45;;;;;;;6.24;85.41;98676.75;5365695;26;20016;-87
2024/04/18 06:16:23;;;;;;;18.67;14.88;;;;;;;6.38;83.12;98668.38;5379733;26;20016;-87
2024/04/18 06:18:49;;;;;;;24.27;15.40;;;;;;;6.14;85.17;98660.59;5384508;26;20004;-87
2024/04/18 06:21:15;;;;;;;19.10;13.73;;;;;;;6.34;84.11;98684.97;5383151;26;19996;-87
2024/04/18 06:23:40;;;;;;;21.23;13.90;;;;;;;6.43;82.84;98657.09;5385793;26;19998;-87
2024/04/18 06:26:06;;;;;;;18.33;12.85;;;;;;;6.60;83.09;98692.53;5381902;26;19992;-87
2024/04/18 06:28:33;;;;;;;17.63;13.35;;;;;;;6.38;81.94;98647.19;5382534;26;20000;-87
2024/04/18 06:30:59;;;;;;;17.45;12.25;;;;;;;6.46;84.00;98717.63;5381695;26;20007;-87
2024/04/18 06:33:29;;;;;;;19.95;13.35;;;;;;;5.83;83.82;98630.56;5388625;26;20020;-87
2024/04/18 06:35:55;;;;;;;21.63;14.55;;;;;;;6.16;84.70;98685.03;5377474;26;20073;-87
2024/04/18 06:38:21;;;;;;;21.05;14.20;;;;;;;6.40;84.81;98700.00;5387505;26;20058;-87
2024/04/18 06:40:46;;;;;;;23.13;13.57;;;;;;;6.75;83.28;98711.47;5380952;26;20515;-87
2024/04/18 06:43:12;;;;;;;20.00;12.90;;;;;;;7.02;82.18;98715.34;5386623;26;20456;-88
2024/04/18 06:45:38;;;;;;;18.33;13.23;;;;;;;6.97;81.33;98714.44;5387263;26;19992;-87
2024/04/18 06:48:07;;;;;;;18.27;12.00;;;;;;;7.04;80.67;98712.47;5388327;26;20007;-87
2024/04/18 06:50:32;;;;;;;21.73;12.77;;;;;;;6.71;82.21;98674.00;5356688;26;20000;-88
2024/04/18 06:52:57;;;;;;;21.05;13.18;;;;;;;5.45;84.46;98600.09;5385897;26;20515;-88
2024/04/18 06:55:23;;;;;;;20.52;14.00;;;;;;;5.46;86.96;98710.25;5372573;26;20010;-87
2024/04/18 06:57:48;;;;;;;15.32;11.98;;;;;;;5.72;85.52;98606.72;5332870;26;20007;-87
2024/04/18 07:00:14;;;;;;;17.95;13.07;;;;;;;6.45;84.99;98721.31;5380767;26;20048;-87
2024/04/18 07:02:39;;;;;;;18.40;12.95;;;;;;;6.39;84.55;98688.56;5384442;26;20448;-87
2024/04/18 07:05:05;;;;;;;15.43;11.82;;;;;;;6.60;83.27;98669.50;5384654;26;20015;-88
2024/04/18 07:07:30;;;;;;;23.10;11.60;;;;;;;6.97;81.18;98690.56;5384226;26;20004;-87
2024/04/18 07:09:56;;;;;;;17.55;11.73;;;;;;;6.73;82.55;98710.91;5384908;26;20591;-87
2024/04/18 07:12:21;;;;;;;21.90;12.27;;;;;;;6.45;83.28;98729.25;5379596;26;19992;-88
2024/04/18 07:14:47;;;;;;;15.82;12.05;;;;;;;6.64;83.07;98730.84;5387987;26;20000;-88
2024/04/18 07:17:12;;;;;;;18.58;12.10;;;;;;;6.73;84.38;98740.09;5385677;26;20000;-87
2024/04/18 07:19:37;;;;;;;18.48;12.77;;;;;;;6.61;83.48;98707.44;5386687;26;19993;-87
2024/04/18 07:22:03;;;;;;;20.73;11.35;;;;;;;6.81;82.32;98750.38;5394592;26;19996;-88
2024/04/18 07:24:30;;;;;;;22.80;13.95;;;;;;;5.86;84.69;98741.41;5386562;26;20007;-86
2024/04/18 07:26:55;;;;;;;24.88;15.20;;;;;;;5.62;88.20;98744.06;5387170;26;20011;-87
2024/04/18 07:29:21;;;;;;;22.38;16.13;;;;;;;5.89;87.61;98762.16;5387974;26;20046;-87
2024/04/18 07:31:46;;;;;;;22.77;14.82;;;;;;;5.99;86.46;98701.53;5387712;26;20545;-87
2024/04/18 07:34:13;;;;;;;24.48;17.02;;;;;;;5.60;87.74;98719.66;5387324;26;20000;-87
2024/04/18 07:36:39;;;;;;;26.17;15.05;;;;;;;5.91;89.73;98770.69;5397062;26;20331;-88
2024/04/18 07:39:04;;;;;;;29.73;18.38;;;;;;;5.69;89.21;98768.66;5343043;26;20014;-88
2024/04/18 07:41:29;;;;;;;23.63;16.70;;;;;;;6.01;88.85;98773.63;5383665;26;20004;-88
2024/04/18 07:43:55;;;;;;;23.63;17.55;;;;;;;5.44;89.44;98779.25;5384878;26;20000;-87
2024/04/18 07:46:21;;;;;;;27.30;17.00;;;;;;;5.27;90.21;98712.03;5356015;26;20000;-86
2024/04/18 07:48:47;;;;;;;28.25;16.95;;;;;;;5.44;88.40;98755.44;5355981;26;19996;-88
2024/04/18 07:51:13;;;;;;;26.38;16.90;;;;;;;4.80;89.31;98720.59;5387670;26;20019;-87
2024/04/18 07:53:38;;;;;;;27.67;17.70;;;;;;;5.14;89.64;98788.88;5380354;26;20008;-88
2024/04/18 07:56:07;;;;;;;25.45;17.30;;;;;;;5.45;89.59;98766.84;5385661;26;20512;-87
2024/04/18 07:58:33;;;;;;;28.48;16.08;;;;;;;6.61;87.92;98786.97;5383467;26;20411;-87
2024/04/18 08:00:58;;;;;;;23.80;16.15;;;;;;;5.54;88.02;98779.59;5385300;26;20054;-87
2024/04/18 08:03:23;;;;;;;25.27;16.13;;;;;;;4.95;89.50;98676.13;5355672;26;20507;-87
2024/04/18 08:05:49;;;;;;;32.30;18.30;;;;;;;5.53;90.64;98759.44;5384150;26;20004;-86
2024/04/18 08:08:14;;;;;;;21.92;16.35;;;;;;;5.65;90.69;98730.41;5382673;26;20074;-88
2024/04/18 08:10:40;;;;;;;26.40;17.55;;;;;;;6.63;87.62;98783.06;5384486;26;19997;-87
2024/04/18 08:13:05;;;;;;;24.55;15.40;;;;;;;6.68;88.48;98795.66;5385424;26;20000;-87
2024/04/18 08:15:31;;;;;;;23.52;14.80;;;;;;;6.24;88.80;98801.31;5355080;26;20015;-88
2024/04/18 08:17:57;;;;;;;28.48;14.52;;;;;;;6.02;89.67;98700.28;5384397;26;20000;-88
2024/04/18 08:20:22;;;;;;;21.05;14.57;;;;;;;6.64;90.06;98810.41;5386862;26;20008;-88
2024/04/18 08:22:50;;;;;;;21.27;14.55;;;;;;;6.98;87.18;98793.00;5386907;26;19996;-88
2024/04/18 08:25:16;;;;;;;23.67;13.60;;;;;;;6.58;87.02;98806.78;5327510;26;20001;-88
2024/04/18 08:27:42;;;;;;;16.58;12.57;;;;;;;5.91;85.60;98749.50;5383635;26;20000;-87
2024/04/18 08:30:07;;;;;;;22.88;14.32;;;;;;;6.28;87.43;98747.63;5384647;26;20012;-87
2024/04/18 08:32:33;;;;;;;20.70;12.80;;;;;;;6.67;87.00;98781.59;5386286;26;19996;-87
2024/04/18 08:34:58;;;;;;;22.48;12.65;;;;;;;6.05;84.10;98700.63;5384924;26;20352;-87
2024/04/18 08:37:23;;;;;;;17.02;12.93;;;;;;;7.01;83.35;98809.25;5384134;26;20091;-87
2024/04/18 08:39:49;;;;;;;19.80;12.55;;;;;;;6.37;83.64;98703.06;5383055;26;19999;-87
2024/04/18 08:42:19;;;;;;;20.10;14.43;;;;;;;6.86;84.04;98805.41;5383619;26;20011;-87
2024/04/18 08:44:46;;;;;;;18.83;13.77;;;;;;;7.42;85.02;98773.91;5385704;26;20004;-87
2024/04/18 08:47:14;;;;;;;18.50;11.77;;;;;;;7.24;81.27;98817.28;5366977;26;20016;-87
2024/04/18 08:49:41;;;;;;;17.38;12.23;;;;;;;7.56;81.77;98810.63;5384550;26;20448;-87
2024/04/18 08:52:09;;;;;;;20.15;11.23;;;;;;;8.15;81.46;98748.44;5383076;26;20013;-88
2024/04/18 08:54:35;;;;;;;16.42;11.60;;;;;;;8.67;79.46;98801.63;5385171;26;19996;-87
2024/04/18 08:57:06;;;;;;;17.13;10.48;;;;;;;6.80;79.97;98720.41;5383311;26;20008;-86
2024/04/18 08:59:32;;;;;;;17.10;11.63;;;;;;;7.00;80.64;98786.41;5383865;26;20012;-87
2024/04/18 09:01:59;;;;;;;14.25;11.35;;;;;;;7.10;81.74;98807.13;5367235;26;20011;-87
2024/04/18 09:04:24;;;;;;;16.65;12.85;;;;;;;6.90;84.31;98769.44;5349411;26;20009;-87
2024/04/18 09:06:49;;;;;;;12.80;10.27;;;;;;;7.88;81.26;98735.91;5409358;26;20530;-87
2024/04/18 09:09:18;;;;;;;14.93;9.95;;;;;;;8.89;78.57;98822.00;5354007;26;20368;-87
2024/04/18 09:11:47;;;;;;;13.77;9.35;;;;;;;7.70;78.49;98784.66;5383503;26;20067;-87
2024/04/18 09:14:12;;;;;;;13.65;9.05;;;;;;;7.72;77.54;98829.59;5351557;26;20047;-87
2024/04/18 09:16:38;;;;;;;14.55;9.77;;;;;;;8.14;79.54;98825.78;5383390;26;20000;-87
2024/04/18 09:19:04;;;;;;;11.25;8.95;;;;;;;7.90;78.01;98786.97;5384578;26;20010;-87
2024/04/18 09:21:29;;;;;;;9.20;8.20;;;;;;;7.41;78.26;98754.53;5384150;26;20078;-87
2024/04/18 09:23:57;;;;;;;12.48;8.07;;;;;;;7.78;78.78;98834.78;5347903;26;20011;-87
2024/04/18 09:26:26;;;;;;;11.25;8.30;;;;;;;8.74;79.35;98824.38;5377455;26;20007;-87
2024/04/18 09:28:51;;;;;;;12.55;7.95;;;;;;;8.57;77.56;98809.41;5381475;26;20010;-87
2024/04/18 09:31:19;;;;;;;12.10;7.63;;;;;;;7.67;74.83;98837.44;5383903;26;20004;-87
2024/04/18 09:33:49;;;;;;;10.80;7.85;;;;;;;7.69;75.20;98803.50;5349136;26;20012;-86
2024/04/18 09:36:15;;;;;;;9.75;7.10;;;;;;;8.75;77.50;98828.66;5384077;26;20000;-87
2024/04/18 09:38:45;;;;;;;9.55;6.40;;;;;;;9.05;76.95;98807.94;5384470;26;20459;-87
2024/04/18 09:41:15;;;;;;;7.90;6.32;;;;;;;9.50;74.97;98834.53;5385008;26;20036;-87
2024/04/18 09:44:14;;;;;;;7.45;6.68;;;;;;;9.38;75.40;98836.47;5382570;26;20440;-87
2024/04/18 09:46:40;;;;;;;10.70;6.32;;;;;;;9.49;75.22;98840.91;5383064;26;19993;-87
2024/04/18 09:49:06;;;;;;;8.90;5.47;;;;;;;9.30;74.22;98790.78;5384159;26;20000;-87
2024/04/18 09:51:31;;;;;;;6.93;5.93;;;;;;;8.95;73.97;98772.34;5382869;26;20011;-87
2024/04/18 09:53:58;;;;;;;9.30;5.63;;;;;;;9.45;74.27;98830.97;5383920;26;20043;-88
2024/04/18 09:56:26;;;;;;;9.45;6.68;;;;;;;8.97;73.82;98839.47;5383961;26;20010;-87
2024/04/18 09:58:52;;;;;;;8.80;6.50;;;;;;;8.95;74.76;98847.66;5382514;26;20459;-87
2024/04/18 10:01:18;;;;;;;10.45;6.55;;;;;;;8.99;74.50;98805.41;5378817;26;20004;-86
2024/04/18 10:03:44;;;;;;;9.48;6.10;;;;;;;8.03;73.41;98821.28;5409109;26;19997;-87
2024/04/18 10:06:13;;;;;;;9.63;7.20;;;;;;;7.63;75.23;98826.47;5380432;26;20018;-87
2024/04/18 10:08:41;;;;;;;9.73;6.75;;;;;;;8.52;77.35;98855.31;5382760;26;20000;-87
2024/04/18 10:11:09;;;;;;;9.50;5.75;;;;;;;9.04;75.76;98830.25;5415019;26;20010;-87
2024/04/18 10:13:36;;;;;;;10.45;8.00;;;;;;;8.70;76.17;98835.72;5356089;26;20642;-87
2024/04/18 10:16:12;;;;;;;10.75;7.82;;;;;;;8.73;77.52;98849.38;5384030;26;19992;-87
2024/04/18 10:18:39;;;;;;;11.25;8.15;;;;;;;7.75;76.64;98823.81;5383415;26;19996;-87
2024/04/18 10:21:25;;;;;;;12.32;8.93;;;;;;;7.94;78.44;98814.69;5355137;26;20479;-86
2024/04/18 10:23:53;;;;;;;13.20;8.57;;;;;;;8.54;78.18;98850.56;5384313;26;20015;-86
2024/04/18 10:26:20;;;;;;;9.52;6.68;;;;;;;9.18;76.78;98848.59;5383770;26;20000;-86
2024/04/18 10:28:50;;;;;;;13.13;7.32;;;;;;;8.95;73.07;98842.34;5383058;26;20011;-86
2024/04/18 10:31:17;;;;;;;8.27;5.60;;;;;;;9.77;74.54;98848.03;5384866;26;20015;-87
2024/04/18 10:33:43;;;;;;;7.13;5.05;;;;;;;9.74;74.24;98840.53;5386420;26;20004;-87
2024/04/18 10:36:16;;;;;;;7.10;5.30;;;;;;;9.84;73.95;98851.34;5414302;26;20007;-87
2024/04/18 10:38:45;;;;;;;8.25;5.20;;;;;;;9.74;73.26;98845.84;5386699;26;20005;-87
2024/04/18 10:41:14;;;;;;;8.30;6.22;;;;;;;9.54;72.64;98784.25;5386482;26;20012;-87
2024/04/18 10:43:43;;;;;;;12.27;6.13;;;;;;;9.75;72.78;98853.59;5387106;26;20000;-86
2024/04/18 10:46:10;;;;;;;12.52;5.82;;;;;;;9.96;72.34;98851.25;5364333;26;20000;-87
2024/04/18 10:48:36;;;;;;;8.27;5.68;;;;;;;9.89;72.38;98846.09;5387255;26;20036;-86
2024/04/18 10:51:02;;;;;;;8.95;6.10;;;;;;;9.90;72.62;98842.34;5382248;26;20011;-87
2024/04/18 10:53:28;;;;;;;8.63;5.53;;;;;;;9.67;71.83;98815.91;5386664;26;20000;-87
2024/04/18 10:55:54;;;;;;;8.18;5.88;;;;;;;9.83;71.91;98863.84;5326823;26;20004;-87
2024/04/18 10:58:19;;;;;;;14.63;6.47;;;;;;;9.78;72.83;98852.31;5386617;26;20329;-87
2024/04/18 11:00:45;;;;;;;10.32;5.80;;;;;;;9.47;72.32;98786.25;5386943;26;20046;-87
2024/04/18 11:03:11;;;;;;;11.50;6.53;;;;;;;9.54;72.08;98792.25;5378954;26;19998;-86
2024/04/18 11:05:43;;;;;;;12.90;6.82;;;;;;;9.61;72.41;98803.53;5385004;26;20007;-87
2024/04/18 11:08:09;;;;;;;16.42;7.00;;;;;;;9.58;73.10;98846.66;5386268;26;20007;-87
2024/04/18 11:10:37;;;;;;;10.45;6.07;;;;;;;9.28;73.30;98836.31;5356240;26;20004;-86
2024/04/18 11:13:03;;;;;;;12.35;7.00;;;;;;;9.66;74.35;98817.75;5384818;26;20050;-87
2024/04/18 11:15:30;;;;;;;9.70;6.68;;;;;;;10.04;73.56;98830.31;5387625;26;20004;-87
2024/04/18 11:17:55;;;;;;;16.23;6.53;;;;;;;10.38;72.17;98821.19;5385672;26;20025;-87
2024/04/18 11:20:22;;;;;;;8.48;5.43;;;;;;;10.60;73.00;98831.88;5386276;26;19996;-87
2024/04/18 11:22:47;;;;;;;7.03;5.65;;;;;;;9.53;68.73;98747.97;5402473;26;20460;-88
2024/04/18 11:25:14;;;;;;;7.60;5.88;;;;;;;9.55;72.21;98756.53;5385183;26;20008;-87
2024/04/18 11:27:40;;;;;;;7.53;5.10;;;;;;;10.68;72.83;98838.66;5387796;26;20008;-87
2024/04/18 11:30:06;;;;;;;10.23;5.28;;;;;;;10.61;72.15;98830.84;5386223;26;20072;-87